createdAt,value
2023-05-06T00:00:23.223Z,99.90
2023-05-06T00:02:52.805Z,99.90
2023-05-06T00:05:20.960Z,99.90
2023-05-06T00:07:49.076Z,99.90
2023-05-06T00:10:17.253Z,99.90
2023-05-06T00:12:45.392Z,99.90
2023-05-06T00:15:13.530Z,99.90
2023-05-06T00:17:41.697Z,99.90
2023-05-06T00:20:12.161Z,99.90
2023-05-06T00:22:40.207Z,99.90
2023-05-06T00:25:08.953Z,99.90
2023-05-06T00:27:37.165Z,99.90
2023-05-06T00:30:05.963Z,99.90
2023-05-06T00:32:34.048Z,99.90
2023-05-06T00:35:02.186Z,99.90
2023-05-06T00:37:31.696Z,99.90
2023-05-06T00:39:59.777Z,99.90
2023-05-06T00:42:27.942Z,99.90
2023-05-06T00:44:56.033Z,99.90
2023-05-06T00:47:24.554Z,99.90
2023-05-06T00:49:52.774Z,99.90
2023-05-06T00:52:21.589Z,99.90
2023-05-06T00:54:51.062Z,99.90
2023-05-06T00:57:19.253Z,99.90
2023-05-06T00:59:47.397Z,99.90
2023-05-06T01:02:16.637Z,99.90
2023-05-06T01:04:45.328Z,99.90
2023-05-06T01:07:24.415Z,99.90
2023-05-06T01:09:58.560Z,99.90
2023-05-06T01:12:33.019Z,99.90
2023-05-06T01:15:06.641Z,99.90
2023-05-06T01:17:37.930Z,99.90
2023-05-06T01:20:11.071Z,99.90
2023-05-06T01:22:40.124Z,99.90
2023-05-06T01:25:20.237Z,99.90
2023-05-06T01:27:48.416Z,99.90
2023-05-06T01:30:19.129Z,99.90
2023-05-06T01:32:59.398Z,99.90
2023-05-06T01:35:35.361Z,99.90
2023-05-06T01:38:13.104Z,99.90
2023-05-06T01:40:43.746Z,99.90
2023-05-06T01:43:14.718Z,99.90
2023-05-06T01:45:49.454Z,99.90
2023-05-06T01:48:18.445Z,99.90
2023-05-06T01:50:46.747Z,99.90
2023-05-06T01:53:14.893Z,99.90
2023-05-06T01:55:44.327Z,99.90
2023-05-06T01:58:12.471Z,99.90
2023-05-06T02:00:40.574Z,99.90
2023-05-06T02:03:08.785Z,99.90
2023-05-06T02:05:36.972Z,99.90
2023-05-06T02:08:05.178Z,99.90
2023-05-06T02:10:33.252Z,99.90
2023-05-06T02:13:02.795Z,99.90
2023-05-06T02:15:30.929Z,99.90
2023-05-06T02:17:59.976Z,99.90
2023-05-06T02:20:28.277Z,99.90
2023-05-06T02:22:56.366Z,99.90
2023-05-06T02:25:24.778Z,99.90
2023-05-06T02:27:52.843Z,99.90
2023-05-06T02:30:22.336Z,99.90
2023-05-06T02:32:50.469Z,99.90
2023-05-06T02:35:18.635Z,99.90
2023-05-06T02:37:46.714Z,99.90
2023-05-06T02:40:14.997Z,99.90
2023-05-06T02:42:43.185Z,99.90
2023-05-06T02:45:12.306Z,99.90
2023-05-06T02:47:41.878Z,99.90
2023-05-06T02:50:10.277Z,99.90
2023-05-06T02:52:38.445Z,99.90
2023-05-06T02:55:07.840Z,99.90
2023-05-06T02:57:36.071Z,99.90
2023-05-06T03:08:21.340Z,99.90
2023-05-06T03:10:50.310Z,99.90
2023-05-06T03:13:18.406Z,99.90
2023-05-06T03:15:46.519Z,99.90
2023-05-06T03:18:14.596Z,99.90
2023-05-06T03:20:42.637Z,99.90
2023-05-06T03:23:10.758Z,99.90
2023-05-06T03:25:40.225Z,99.90
2023-05-06T03:28:08.318Z,99.90
2023-05-06T03:30:36.387Z,99.90
2023-05-06T03:33:04.552Z,99.90
2023-05-06T03:39:29.510Z,99.90
2023-05-06T03:41:59.102Z,99.90
2023-05-06T03:44:27.263Z,99.90
2023-05-06T03:46:55.410Z,99.90
2023-05-06T03:49:23.490Z,99.90
2023-05-06T03:51:51.774Z,99.90
2023-05-06T03:54:19.950Z,99.90
2023-05-06T03:56:48.064Z,99.90
2023-05-06T03:59:17.586Z,99.90
2023-05-06T04:01:45.898Z,99.90
2023-05-06T04:04:14.121Z,99.90
2023-05-06T04:06:42.212Z,99.90
2023-05-06T04:09:10.306Z,99.90
2023-05-06T04:11:38.412Z,99.90
2023-05-06T04:14:06.528Z,99.90
2023-05-06T04:16:36.106Z,99.90
2023-05-06T04:19:06.463Z,99.90
2023-05-06T04:21:34.827Z,99.90
2023-05-06T04:24:03.188Z,99.90
2023-05-06T04:26:31.481Z,99.90
2023-05-06T04:28:59.566Z,99.90
2023-05-06T04:31:29.808Z,99.90
2023-05-06T04:33:59.357Z,99.90
2023-05-06T04:36:27.551Z,99.90
2023-05-06T04:46:27.492Z,99.90
2023-05-06T04:48:56.931Z,99.90
2023-05-06T04:51:26.885Z,99.90
2023-05-06T04:53:54.982Z,99.90
2023-05-06T04:56:23.104Z,99.90
2023-05-06T04:58:51.272Z,99.90
2023-05-06T05:01:19.505Z,99.90
2023-05-06T05:03:47.721Z,99.90
2023-05-06T05:06:16.145Z,99.90
2023-05-06T05:08:45.839Z,99.90
2023-05-06T05:11:14.117Z,99.90
2023-05-06T05:13:42.252Z,99.90
2023-05-06T05:16:10.358Z,99.90
2023-05-06T05:18:38.467Z,99.90
2023-05-06T05:21:06.589Z,99.90
2023-05-06T05:23:34.710Z,99.90
2023-05-06T05:26:04.954Z,99.90
2023-05-06T05:28:33.094Z,99.90
2023-05-06T05:31:04.132Z,99.90
2023-05-06T05:33:32.483Z,99.90
2023-05-06T05:36:00.622Z,99.90
2023-05-06T05:38:28.848Z,99.90
2023-05-06T05:40:56.951Z,99.90
2023-05-06T05:43:27.064Z,99.90
2023-05-06T06:06:51.799Z,99.90
2023-05-06T06:09:19.919Z,99.90
2023-05-06T06:11:48.053Z,99.90
2023-05-06T06:14:16.165Z,99.90
2023-05-06T06:16:44.450Z,99.90
2023-05-06T06:19:12.742Z,99.90
2023-05-06T06:21:41.028Z,99.90
2023-05-06T06:24:10.519Z,99.90
2023-05-06T06:26:38.642Z,99.90
2023-05-06T06:29:06.732Z,99.90
2023-05-06T06:31:35.723Z,99.90
2023-05-06T06:34:06.459Z,99.90
2023-05-06T06:36:34.745Z,99.90
2023-05-06T06:39:02.984Z,99.90
2023-05-06T06:41:32.519Z,99.90
2023-05-06T06:44:00.877Z,99.90
2023-05-06T06:46:28.995Z,99.90
2023-05-06T06:48:57.107Z,99.90
2023-05-06T06:51:25.234Z,99.90
2023-05-06T06:53:53.453Z,99.90
2023-05-06T06:56:21.953Z,99.90
2023-05-06T06:58:53.274Z,99.90
2023-05-06T07:01:21.905Z,99.90
2023-05-06T07:03:50.089Z,99.90
2023-05-06T07:06:18.234Z,99.90
2023-05-06T07:08:46.380Z,99.90
2023-05-06T07:11:14.952Z,99.90
2023-05-06T07:13:43.044Z,99.90
2023-05-06T07:16:12.641Z,99.90
2023-05-06T07:18:40.727Z,99.90
2023-05-06T07:21:08.879Z,99.90
2023-05-06T07:23:37.154Z,99.90
2023-05-06T07:29:56.375Z,99.90
2023-05-06T07:32:25.873Z,99.90
2023-05-06T07:34:53.988Z,99.90
2023-05-06T07:37:22.062Z,99.90
2023-05-06T07:39:50.178Z,99.90
2023-05-06T07:42:18.308Z,99.90
2023-05-06T07:44:46.468Z,99.90
2023-05-06T07:47:18.388Z,99.90
2023-05-06T07:49:47.889Z,99.90
2023-05-06T07:52:16.026Z,99.90
2023-05-06T07:54:44.111Z,99.90
2023-05-06T07:57:12.220Z,99.90
2023-05-06T07:59:40.361Z,99.90
2023-05-06T08:02:08.516Z,99.90
2023-05-06T08:04:36.917Z,99.90
2023-05-06T08:07:06.556Z,99.90
2023-05-06T08:09:34.706Z,99.90
2023-05-06T08:12:02.811Z,99.90
2023-05-06T08:14:31.027Z,99.90
2023-05-06T08:20:40.337Z,99.90
2023-05-06T08:23:10.031Z,99.90
2023-05-06T08:25:38.374Z,99.90
2023-05-06T08:28:06.505Z,99.90
2023-05-06T08:30:34.769Z,99.90
2023-05-06T08:33:06.333Z,99.90
2023-05-06T08:35:34.711Z,99.90
2023-05-06T08:38:02.808Z,99.90
2023-05-06T08:40:33.809Z,99.90
2023-05-06T08:43:05.256Z,99.90
2023-05-06T08:45:34.262Z,99.90
2023-05-06T08:48:02.485Z,99.90
2023-05-06T08:50:30.699Z,99.90
2023-05-06T08:52:59.214Z,99.90
2023-05-06T08:55:28.785Z,99.90
2023-05-06T08:57:59.171Z,99.90
2023-05-06T09:00:27.427Z,99.90
2023-05-06T09:02:55.630Z,99.90
2023-05-06T09:05:23.723Z,99.90
2023-05-06T09:07:53.815Z,99.90
2023-05-06T09:10:21.996Z,99.90
2023-05-06T09:12:50.109Z,99.90
2023-05-06T09:15:24.489Z,99.90
2023-05-06T09:17:52.661Z,99.90
2023-05-06T09:20:20.903Z,99.90
2023-05-06T09:22:49.131Z,99.90
2023-05-06T09:25:17.418Z,99.90
2023-05-06T09:27:45.536Z,99.90
2023-05-06T09:30:14.622Z,99.70
2023-05-06T09:32:49.947Z,99.60
2023-05-06T09:35:18.107Z,98.00
2023-05-06T09:37:46.485Z,98.90
2023-05-06T09:40:15.487Z,97.00
2023-05-06T09:42:45.227Z,97.60
2023-05-06T09:45:17.746Z,97.90
2023-05-06T09:47:49.611Z,97.70
2023-05-06T09:50:17.887Z,97.50
2023-05-06T09:52:46.703Z,95.80
2023-05-06T09:55:16.096Z,97.40
2023-05-06T09:57:45.800Z,95.20
2023-05-06T10:00:15.966Z,94.30
2023-05-06T10:02:48.947Z,95.10
2023-05-06T10:05:18.690Z,95.70
2023-05-06T10:16:10.819Z,95.40
2023-05-06T10:18:42.464Z,94.70
2023-05-06T10:21:18.371Z,95.20
2023-05-06T10:23:55.530Z,94.60
2023-05-06T10:26:24.641Z,94.60
2023-05-06T10:28:54.936Z,94.10
2023-05-06T10:31:23.078Z,93.50
2023-05-06T10:33:55.443Z,93.20
2023-05-06T10:36:25.350Z,94.60
2023-05-06T10:38:56.519Z,95.40
2023-05-06T10:41:28.045Z,95.00
2023-05-06T10:43:57.661Z,95.70
2023-05-06T10:46:26.716Z,96.40
2023-05-06T10:49:19.224Z,96.30
2023-05-06T10:51:48.317Z,96.70
2023-05-06T10:54:25.637Z,97.20
2023-05-06T10:57:10.215Z,95.20
2023-05-06T10:59:38.289Z,96.20
2023-05-06T11:02:10.452Z,96.40
2023-05-06T11:04:40.874Z,96.90
2023-05-06T11:07:11.109Z,98.10
2023-05-06T11:09:57.829Z,97.00
2023-05-06T11:12:47.459Z,95.10
2023-05-06T11:15:39.362Z,96.00
2023-05-06T11:18:44.397Z,97.30
2023-05-06T11:21:39.926Z,97.50
2023-05-06T11:24:10.045Z,97.70
2023-05-06T11:26:38.158Z,97.70
2023-05-06T11:29:07.267Z,96.30
2023-05-06T11:31:41.770Z,95.20
2023-05-06T11:34:12.134Z,96.30
2023-05-06T11:37:00.706Z,96.60
2023-05-06T11:39:30.693Z,96.90
2023-05-06T11:42:06.709Z,98.20
2023-05-06T11:44:36.968Z,99.00
2023-05-06T11:47:06.755Z,98.70
2023-05-06T11:49:39.485Z,96.30
2023-05-06T11:55:50.718Z,95.00
2023-05-06T11:58:27.097Z,95.70
2023-05-06T12:00:56.551Z,94.20
2023-05-06T12:03:26.183Z,94.20
2023-05-06T12:05:54.407Z,94.80
2023-05-06T12:08:27.970Z,95.60
2023-05-06T12:11:00.769Z,96.10
2023-05-06T12:13:29.586Z,95.80
2023-05-06T12:16:00.425Z,96.50
2023-05-06T12:18:29.135Z,96.10
2023-05-06T12:20:57.937Z,95.80
2023-05-06T12:23:26.026Z,96.10
2023-05-06T12:26:04.120Z,96.00
2023-05-06T12:28:33.430Z,96.20
2023-05-06T12:31:02.093Z,96.40
2023-05-06T12:33:45.162Z,95.80
2023-05-06T12:36:13.449Z,97.10
2023-05-06T12:38:51.588Z,95.90
2023-05-06T12:41:21.520Z,96.60
2023-05-06T12:43:49.811Z,96.70
2023-05-06T12:46:18.449Z,95.20
2023-05-06T12:48:58.697Z,96.00
2023-05-06T12:51:27.302Z,95.60
2023-05-06T12:53:55.826Z,95.40
2023-05-06T12:56:25.744Z,96.90
2023-05-06T12:59:00.877Z,97.00
2023-05-06T13:01:29.139Z,95.50
2023-05-06T13:03:58.302Z,95.40
2023-05-06T13:06:26.502Z,96.20
2023-05-06T13:08:54.600Z,96.40
2023-05-06T13:11:24.517Z,95.70
2023-05-06T13:13:53.996Z,96.20
2023-05-06T13:16:22.192Z,96.00
2023-05-06T13:18:50.937Z,94.70
2023-05-06T13:21:19.094Z,94.10
2023-05-06T13:23:48.054Z,94.90
2023-05-06T13:26:17.437Z,95.50
2023-05-06T13:28:45.894Z,95.40
2023-05-06T13:31:15.376Z,95.50
2023-05-06T13:33:43.492Z,95.40
2023-05-06T13:36:11.585Z,95.10
2023-05-06T13:38:39.696Z,95.90
2023-05-06T13:41:08.716Z,95.60
2023-05-06T13:43:37.072Z,95.30
2023-05-06T13:46:05.245Z,94.70
2023-05-06T13:48:34.723Z,94.80
2023-05-06T13:51:02.779Z,94.60
2023-05-06T13:53:30.890Z,95.10
2023-05-06T13:55:58.964Z,93.00
2023-05-06T13:58:27.156Z,92.80
2023-05-06T14:00:55.234Z,93.20
2023-05-06T14:03:23.312Z,94.00
2023-05-06T14:05:52.912Z,93.50
2023-05-06T14:08:21.078Z,94.90
2023-05-06T14:10:49.178Z,94.50
2023-05-06T14:13:17.373Z,94.90
2023-05-06T14:15:45.542Z,95.10
2023-05-06T14:18:13.896Z,94.00
2023-05-06T14:20:42.356Z,94.20
2023-05-06T14:23:12.110Z,94.00
2023-05-06T14:25:40.493Z,94.10
2023-05-06T14:28:10.469Z,94.50
2023-05-06T14:30:38.936Z,94.40
2023-05-06T14:33:07.533Z,94.50
2023-05-06T14:35:36.041Z,93.50
2023-05-06T14:38:04.407Z,93.90
2023-05-06T14:40:35.995Z,93.40
2023-05-06T14:43:04.443Z,93.50
2023-05-06T14:45:32.622Z,94.30
2023-05-06T14:48:00.862Z,94.40
2023-05-06T14:50:29.052Z,95.00
2023-05-06T14:52:57.135Z,95.30
2023-05-06T14:55:25.878Z,95.20
2023-05-06T14:57:55.354Z,95.70
2023-05-06T15:00:23.456Z,94.50
2023-05-06T15:02:51.542Z,95.40
2023-05-06T15:05:19.741Z,94.90
2023-05-06T15:07:47.877Z,94.80
2023-05-06T15:10:16.100Z,94.30
2023-05-06T15:12:44.231Z,94.70
2023-05-06T15:15:13.929Z,94.80
2023-05-06T15:17:42.435Z,94.90
2023-05-06T15:20:11.508Z,95.00
2023-05-06T15:22:39.865Z,94.60
2023-05-06T15:25:12.320Z,94.30
2023-05-06T15:27:42.568Z,95.10
2023-05-06T15:30:11.242Z,94.70
2023-05-06T15:32:40.742Z,95.20
2023-05-06T15:35:09.805Z,94.60
2023-05-06T15:37:38.074Z,95.40
2023-05-06T15:40:11.173Z,95.50
2023-05-06T15:42:39.810Z,95.20
2023-05-06T15:45:09.029Z,95.50
2023-05-06T15:47:37.365Z,95.40
2023-05-06T15:52:38.639Z,95.70
2023-05-06T15:55:07.677Z,96.00
2023-05-06T15:57:36.504Z,95.70
2023-05-06T16:00:05.456Z,96.00
2023-05-06T16:02:33.922Z,95.80
2023-05-06T16:05:02.136Z,96.10
2023-05-06T16:07:31.630Z,96.00
2023-05-06T16:09:59.731Z,96.20
2023-05-06T16:12:27.879Z,96.70
2023-05-06T16:14:55.998Z,96.60
2023-05-06T16:17:24.274Z,96.60
2023-05-06T16:19:52.399Z,96.50
2023-05-06T16:22:20.473Z,97.00
2023-05-06T16:24:49.949Z,97.30
2023-05-06T16:27:18.003Z,97.90
2023-05-06T16:29:46.141Z,97.40
2023-05-06T16:32:14.263Z,97.50
2023-05-06T16:34:42.376Z,97.70
2023-05-06T16:37:10.445Z,97.40
2023-05-06T16:39:38.538Z,97.20
2023-05-06T16:42:08.000Z,97.60
2023-05-06T16:44:36.374Z,97.30
2023-05-06T16:47:04.642Z,97.70
2023-05-06T16:49:33.664Z,98.10
2023-05-06T16:52:01.881Z,98.50
2023-05-06T16:54:30.101Z,98.10
2023-05-06T16:56:58.203Z,98.80
2023-05-06T16:59:27.663Z,98.50
2023-05-06T17:01:55.812Z,99.90
2023-05-06T17:04:24.848Z,99.90
2023-05-06T17:06:52.986Z,99.90
2023-05-06T17:09:21.993Z,99.90
2023-05-06T17:11:50.531Z,99.90
2023-05-06T17:14:19.845Z,99.90
2023-05-06T17:16:51.031Z,99.90
2023-05-06T17:19:19.158Z,99.90
2023-05-06T17:21:47.276Z,99.90
2023-05-06T17:24:15.370Z,99.90
2023-05-06T17:26:43.560Z,99.90
2023-05-06T17:29:11.665Z,99.90
2023-05-06T17:31:39.739Z,99.90
2023-05-06T17:34:09.208Z,99.90
2023-05-06T17:36:37.319Z,99.90
2023-05-06T17:39:06.153Z,99.90
2023-05-06T17:41:34.301Z,99.90
2023-05-06T17:44:02.363Z,99.90
2023-05-06T17:46:31.196Z,99.90
2023-05-06T17:48:59.379Z,99.90
2023-05-06T17:51:28.803Z,99.90
2023-05-06T17:53:56.946Z,99.90
2023-05-06T17:56:26.644Z,99.90
2023-05-06T17:58:54.837Z,99.90
2023-05-06T18:01:23.031Z,99.90
2023-05-06T18:11:44.747Z,99.90
2023-05-06T18:14:12.957Z,99.90
2023-05-06T18:16:41.151Z,99.90
2023-05-06T18:19:09.309Z,99.90
2023-05-06T18:21:37.562Z,99.90
2023-05-06T18:24:16.076Z,99.90
2023-05-06T18:26:46.561Z,99.90
2023-05-06T18:29:14.846Z,99.90
2023-05-06T18:31:43.201Z,99.90
2023-05-06T18:34:11.290Z,99.90
2023-05-06T18:36:39.380Z,99.90
2023-05-06T18:39:07.662Z,99.90
2023-05-06T18:41:35.759Z,99.90
2023-05-06T18:44:05.816Z,99.90
2023-05-06T18:46:34.373Z,99.90
2023-05-06T18:49:02.484Z,99.90
2023-05-06T18:51:31.986Z,99.90
2023-05-06T18:54:00.224Z,99.90
2023-05-06T18:56:28.334Z,99.90
2023-05-06T18:58:56.527Z,99.90
2023-05-06T19:01:26.298Z,99.90
2023-05-06T19:03:54.569Z,99.90
2023-05-06T19:06:22.751Z,99.90
2023-05-06T19:08:50.882Z,99.90
2023-05-06T19:11:19.501Z,99.90
2023-05-06T19:13:47.742Z,99.90
2023-05-06T19:16:15.886Z,99.90
2023-05-06T19:18:45.355Z,99.90
2023-05-06T19:21:13.592Z,99.90
2023-05-06T19:23:42.048Z,99.90
2023-05-06T19:26:11.175Z,99.90
2023-05-06T19:28:41.080Z,99.90
2023-05-06T19:31:09.574Z,99.90
2023-05-06T19:33:38.052Z,99.90
2023-05-06T19:36:08.872Z,99.90
2023-05-06T19:38:36.983Z,99.90
2023-05-06T19:41:05.476Z,99.90
2023-05-06T19:43:33.769Z,99.90
2023-05-06T19:46:01.850Z,99.90
2023-05-06T19:48:30.408Z,99.90
2023-05-06T19:50:58.538Z,99.90
2023-05-06T19:53:28.064Z,99.90
2023-05-06T19:55:57.908Z,99.90
2023-05-06T19:58:26.105Z,99.90
2023-05-06T20:00:54.183Z,99.90
2023-05-06T20:03:22.367Z,99.90
2023-05-06T20:05:50.552Z,99.90
2023-05-06T20:08:18.661Z,99.90
2023-05-06T20:10:49.660Z,99.90
2023-05-06T20:13:18.566Z,99.90
2023-05-06T20:15:47.740Z,99.90
2023-05-06T20:18:16.010Z,99.90
2023-05-06T20:20:44.434Z,99.90
2023-05-06T20:23:12.556Z,99.90
2023-05-06T20:25:40.696Z,99.90
2023-05-06T20:28:10.223Z,99.90
2023-05-06T20:30:38.954Z,99.90
2023-05-06T20:33:07.860Z,99.90
2023-05-06T20:35:38.378Z,99.90
2023-05-06T20:38:06.764Z,99.90
2023-05-06T20:40:35.783Z,99.90
2023-05-06T20:43:04.054Z,99.90
2023-05-06T20:45:33.576Z,99.90
2023-05-06T20:48:01.710Z,99.90
2023-05-06T20:50:30.898Z,99.90
2023-05-06T20:52:59.047Z,99.90
2023-05-06T20:55:27.256Z,99.90
2023-05-06T20:57:55.402Z,99.90
2023-05-06T21:00:23.788Z,99.90
2023-05-06T21:02:53.296Z,99.90
2023-05-06T21:05:21.468Z,99.90
2023-05-06T21:07:49.526Z,99.90
2023-05-06T21:10:17.690Z,99.90
2023-05-06T21:12:48.939Z,99.90
2023-05-06T21:15:17.203Z,99.90
2023-05-06T21:17:45.421Z,99.90
2023-05-06T21:20:15.212Z,99.90
2023-05-06T21:22:43.293Z,99.90
2023-05-06T21:25:13.193Z,99.90
2023-05-06T21:27:41.545Z,99.90
2023-05-06T21:30:10.662Z,99.90
2023-05-06T21:32:38.939Z,99.90
2023-05-06T21:35:07.924Z,99.90
2023-05-06T21:37:37.440Z,99.90
2023-05-06T21:40:06.524Z,99.90
2023-05-06T21:42:34.589Z,99.90
2023-05-06T21:45:02.672Z,99.90
2023-05-06T21:47:30.808Z,99.90
2023-05-06T21:49:59.029Z,99.90
2023-05-06T21:52:27.104Z,99.90
2023-05-06T21:54:56.569Z,99.90
2023-05-06T21:57:24.677Z,99.90
2023-05-06T21:59:52.855Z,99.90
2023-05-06T22:02:21.222Z,99.90
2023-05-06T22:04:49.392Z,99.90
2023-05-06T22:07:17.539Z,99.90
2023-05-06T22:09:45.744Z,99.90
2023-05-06T22:12:15.523Z,99.90
2023-05-06T22:14:43.671Z,99.90
2023-05-06T22:17:12.526Z,99.90
2023-05-06T22:19:41.818Z,99.90
2023-05-06T22:22:10.412Z,99.90
2023-05-06T22:24:38.525Z,99.90
2023-05-06T22:27:06.633Z,99.90
2023-05-06T22:29:36.096Z,99.90
2023-05-06T22:40:14.275Z,99.90
2023-05-06T22:42:42.337Z,99.90
2023-05-06T22:45:12.782Z,99.90
2023-05-06T22:47:41.108Z,99.90
2023-05-06T22:50:09.988Z,99.90
2023-05-06T22:52:38.111Z,99.90
2023-05-06T22:55:09.575Z,99.90
2023-05-06T22:57:37.953Z,99.90
2023-05-06T23:00:08.656Z,99.90
2023-05-06T23:02:38.135Z,99.90
2023-05-06T23:05:07.267Z,99.90
2023-05-06T23:07:35.396Z,99.90
2023-05-06T23:10:03.578Z,99.90
2023-05-06T23:12:33.737Z,99.90
2023-05-06T23:15:01.934Z,99.90
2023-05-06T23:17:30.037Z,99.90
2023-05-06T23:19:59.934Z,99.90
2023-05-06T23:22:28.331Z,99.90
2023-05-06T23:24:56.423Z,99.90
2023-05-06T23:27:24.505Z,99.90
2023-05-06T23:29:52.597Z,99.90
2023-05-06T23:32:20.670Z,99.90
2023-05-06T23:34:49.194Z,99.90
2023-05-06T23:37:18.792Z,99.90
2023-05-06T23:39:47.658Z,99.90
2023-05-06T23:42:15.741Z,99.90
2023-05-06T23:44:43.910Z,99.90
2023-05-06T23:47:12.047Z,99.90
2023-05-06T23:49:40.125Z,99.90
